createdAt,value
2022-10-05T00:00:02.162Z,10.42
2022-10-05T00:03:54.250Z,10.42
2022-10-05T00:07:26.458Z,10.48
2022-10-05T00:10:54.536Z,10.54
2022-10-05T00:14:28.696Z,10.60
2022-10-05T00:17:57.465Z,10.64
2022-10-05T00:21:28.442Z,10.67
2022-10-05T00:25:14.004Z,10.69
2022-10-05T00:28:45.127Z,10.71
2022-10-05T00:32:16.997Z,10.72
2022-10-05T00:35:45.148Z,10.73
2022-10-05T00:39:13.028Z,10.68
2022-10-05T00:43:02.372Z,10.65
2022-10-05T00:46:37.176Z,10.61
2022-10-05T00:50:40.327Z,10.57
2022-10-05T00:54:30.498Z,10.53
2022-10-05T00:58:14.190Z,10.52
2022-10-05T01:01:52.932Z,10.52
2022-10-05T01:05:35.053Z,10.54
2022-10-05T01:09:16.530Z,10.58
2022-10-05T01:12:50.552Z,10.64
2022-10-05T01:16:30.654Z,10.65
2022-10-05T01:20:16.679Z,10.70
2022-10-05T01:24:10.659Z,10.71
2022-10-05T01:27:52.401Z,10.77
2022-10-05T01:31:28.835Z,10.81
2022-10-05T01:35:08.840Z,10.83
2022-10-05T01:38:44.468Z,10.81
2022-10-05T01:42:24.489Z,10.79
2022-10-05T01:46:00.967Z,10.76
2022-10-05T01:49:38.366Z,10.73
2022-10-05T01:53:14.321Z,10.68
2022-10-05T01:56:48.682Z,10.67
2022-10-05T02:00:18.623Z,10.66
2022-10-05T02:03:51.087Z,10.64
2022-10-05T02:07:23.719Z,10.64
2022-10-05T02:10:55.492Z,10.66
2022-10-05T02:14:28.392Z,10.70
2022-10-05T02:18:01.161Z,10.74
2022-10-05T02:21:28.339Z,10.79
2022-10-05T02:24:59.525Z,10.80
2022-10-05T02:28:35.992Z,10.82
2022-10-05T02:32:11.718Z,10.84
2022-10-05T02:35:38.914Z,10.87
2022-10-05T02:39:15.499Z,10.90
2022-10-05T02:42:57.807Z,10.88
2022-10-05T02:46:36.962Z,10.88
2022-10-05T02:50:13.733Z,10.86
2022-10-05T02:53:53.274Z,10.83
2022-10-05T02:57:30.232Z,10.81
2022-10-05T03:01:06.283Z,10.77
2022-10-05T03:04:42.972Z,10.71
2022-10-05T03:08:18.070Z,10.69
2022-10-05T03:11:53.549Z,10.67
2022-10-05T03:15:38.541Z,10.66
2022-10-05T03:19:21.340Z,10.67
2022-10-05T03:22:55.947Z,10.68
2022-10-05T03:26:36.967Z,10.68
2022-10-05T03:30:07.648Z,10.74
2022-10-05T03:33:44.430Z,10.81
2022-10-05T03:37:19.240Z,10.86
2022-10-05T03:40:56.110Z,10.87
2022-10-05T03:44:33.885Z,10.88
2022-10-05T03:48:07.553Z,10.85
2022-10-05T03:51:41.182Z,10.82
2022-10-05T03:55:18.838Z,10.78
2022-10-05T03:59:07.887Z,10.73
2022-10-05T04:02:41.748Z,10.69
2022-10-05T04:06:15.436Z,10.65
2022-10-05T04:09:58.441Z,10.60
2022-10-05T04:13:31.191Z,10.55
2022-10-05T04:17:04.908Z,10.53
2022-10-05T04:20:37.773Z,10.54
2022-10-05T04:24:17.574Z,10.56
2022-10-05T04:27:49.332Z,10.58
2022-10-05T04:31:30.273Z,10.58
2022-10-05T04:35:10.376Z,10.57
2022-10-05T04:38:59.485Z,10.59
2022-10-05T04:42:36.538Z,10.62
2022-10-05T04:46:19.926Z,10.65
2022-10-05T04:50:02.250Z,10.66
2022-10-05T04:53:36.174Z,10.65
2022-10-05T04:57:11.914Z,10.64
2022-10-05T05:00:50.845Z,10.65
2022-10-05T05:04:38.031Z,10.64
2022-10-05T05:08:19.610Z,10.61
2022-10-05T05:12:02.587Z,10.59
2022-10-05T05:15:42.640Z,10.58
2022-10-05T05:19:24.148Z,10.56
2022-10-05T05:22:55.764Z,10.54
2022-10-05T05:26:33.530Z,10.51
2022-10-05T05:30:10.597Z,10.50
2022-10-05T05:33:51.988Z,10.49
2022-10-05T05:37:31.397Z,10.51
2022-10-05T05:41:08.757Z,10.53
2022-10-05T05:44:42.062Z,10.56
2022-10-05T05:48:20.528Z,10.63
2022-10-05T05:51:53.800Z,10.73
2022-10-05T05:55:29.921Z,10.84
2022-10-05T05:59:05.675Z,10.93
2022-10-05T06:02:39.181Z,11.02
2022-10-05T06:06:11.384Z,11.10
2022-10-05T06:09:43.844Z,11.17
2022-10-05T06:13:25.666Z,11.24
2022-10-05T06:17:00.018Z,11.29
2022-10-05T06:20:34.707Z,11.33
2022-10-05T06:24:07.134Z,11.37
2022-10-05T06:27:40.333Z,11.41
2022-10-05T06:31:21.247Z,11.45
2022-10-05T06:35:07.692Z,11.48
2022-10-05T06:38:55.100Z,11.51
2022-10-05T06:42:36.029Z,11.54
2022-10-05T06:46:18.399Z,11.57
2022-10-05T06:50:05.480Z,11.63
2022-10-05T06:53:52.939Z,11.69
2022-10-05T06:57:42.344Z,11.76
2022-10-05T07:01:16.859Z,11.84
2022-10-05T07:04:52.151Z,11.93
2022-10-05T07:08:30.147Z,12.01
2022-10-05T07:12:08.862Z,12.08
2022-10-05T07:15:49.033Z,12.17
2022-10-05T07:19:36.055Z,12.20
2022-10-05T07:23:22.560Z,12.27
2022-10-05T07:27:00.070Z,12.34
2022-10-05T07:30:30.560Z,12.41
2022-10-05T07:34:19.060Z,12.46
2022-10-05T07:37:57.584Z,12.50
2022-10-05T07:41:40.735Z,12.55
2022-10-05T07:45:17.408Z,12.62
2022-10-05T07:49:03.870Z,12.70
2022-10-05T07:52:39.930Z,12.80
2022-10-05T07:56:16.742Z,12.89
2022-10-05T07:59:51.652Z,12.95
2022-10-05T08:03:31.952Z,13.02
2022-10-05T08:07:06.435Z,13.07
2022-10-05T08:10:42.086Z,13.12
2022-10-05T08:14:21.492Z,13.18
2022-10-05T08:18:01.340Z,13.21
2022-10-05T08:21:40.441Z,13.27
2022-10-05T08:25:21.713Z,13.30
2022-10-05T08:29:02.434Z,13.36
2022-10-05T08:32:37.467Z,13.49
2022-10-05T08:36:12.637Z,13.57
2022-10-05T08:39:42.910Z,13.63
2022-10-05T08:43:35.009Z,13.73
2022-10-05T08:47:17.765Z,13.84
2022-10-05T08:51:03.206Z,13.92
2022-10-05T08:54:51.754Z,13.94
2022-10-05T08:58:36.897Z,13.97
2022-10-05T09:02:29.769Z,13.97
2022-10-05T09:06:23.473Z,14.00
2022-10-05T09:10:37.626Z,14.04
2022-10-05T09:14:33.052Z,14.07
2022-10-05T09:18:44.486Z,14.13
2022-10-05T09:22:23.150Z,14.18
2022-10-05T09:26:01.764Z,14.25
2022-10-05T09:30:05.319Z,14.31
2022-10-05T09:33:59.622Z,14.38
2022-10-05T09:37:37.678Z,14.52
2022-10-05T09:41:36.764Z,14.65
2022-10-05T09:45:43.861Z,14.74
2022-10-05T09:49:28.823Z,14.84
2022-10-05T09:53:25.503Z,14.90
2022-10-05T09:57:18.955Z,14.94
2022-10-05T10:01:09.647Z,15.01
2022-10-05T10:05:02.017Z,15.09
2022-10-05T10:08:44.054Z,15.18
2022-10-05T10:12:26.383Z,15.29
2022-10-05T10:16:20.465Z,15.43
2022-10-05T10:20:04.259Z,15.59
2022-10-05T10:23:55.049Z,15.69
2022-10-05T10:27:37.783Z,15.83
2022-10-05T10:31:28.173Z,15.97
2022-10-05T10:35:24.116Z,16.07
2022-10-05T10:39:02.007Z,16.09
2022-10-05T10:42:42.855Z,16.14
2022-10-05T10:46:21.810Z,16.17
2022-10-05T10:50:12.145Z,16.18
2022-10-05T10:54:16.003Z,16.16
2022-10-05T10:58:16.038Z,16.22
2022-10-05T11:01:51.611Z,16.30
2022-10-05T11:05:33.180Z,16.37
2022-10-05T11:09:37.309Z,16.40
2022-10-05T11:13:30.514Z,16.42
2022-10-05T11:17:23.025Z,16.46
2022-10-05T11:21:17.730Z,16.49
2022-10-05T11:25:02.744Z,16.60
2022-10-05T11:29:20.450Z,16.74
2022-10-05T11:33:25.352Z,16.79
2022-10-05T11:37:41.504Z,16.88
2022-10-05T11:41:34.560Z,16.89
2022-10-05T11:45:29.152Z,16.92
2022-10-05T11:49:17.262Z,16.94
2022-10-05T11:52:49.450Z,16.93
2022-10-05T11:56:25.515Z,16.95
2022-10-05T11:59:59.525Z,16.92
2022-10-05T12:03:43.720Z,16.91
2022-10-05T12:07:23.131Z,16.89
2022-10-05T12:11:05.692Z,16.87
2022-10-05T12:14:42.777Z,16.88
2022-10-05T12:18:17.191Z,16.90
2022-10-05T12:21:49.556Z,16.90
2022-10-05T12:25:25.860Z,16.87
2022-10-05T12:28:57.622Z,16.85
2022-10-05T12:32:28.413Z,16.86
2022-10-05T12:36:03.358Z,16.86
2022-10-05T12:39:42.630Z,16.86
2022-10-05T12:43:18.901Z,16.87
2022-10-05T12:46:55.183Z,16.86
2022-10-05T12:50:29.320Z,16.87
2022-10-05T12:54:03.208Z,16.89
2022-10-05T12:57:40.538Z,16.92
2022-10-05T13:01:23.469Z,16.96
2022-10-05T13:04:59.048Z,17.00
2022-10-05T13:08:34.122Z,17.05
2022-10-05T13:12:06.324Z,17.11
2022-10-05T13:15:39.011Z,17.18
2022-10-05T13:19:22.932Z,17.24
2022-10-05T13:22:58.745Z,17.27
2022-10-05T13:26:33.701Z,17.27
2022-10-05T13:30:05.243Z,17.27
2022-10-05T13:33:49.315Z,17.28
2022-10-05T13:37:25.782Z,17.27
2022-10-05T13:41:04.631Z,17.25
2022-10-05T13:44:37.938Z,17.21
2022-10-05T13:48:18.439Z,17.17
2022-10-05T13:51:53.989Z,17.12
2022-10-05T13:55:39.499Z,17.10
2022-10-05T13:59:16.546Z,17.08
2022-10-05T14:02:52.164Z,17.07
2022-10-05T14:06:31.534Z,17.09
2022-10-05T14:10:01.609Z,17.12
2022-10-05T14:13:35.558Z,17.15
2022-10-05T14:17:04.369Z,17.19
2022-10-05T14:20:34.540Z,17.22
2022-10-05T14:24:42.496Z,17.18
2022-10-05T14:28:34.588Z,17.19
2022-10-05T14:32:16.352Z,17.16
2022-10-05T14:36:01.126Z,17.12
2022-10-05T14:39:42.517Z,17.03
2022-10-05T14:43:22.628Z,17.01
2022-10-05T14:46:58.997Z,16.99
2022-10-05T14:50:30.999Z,16.95
2022-10-05T14:54:04.460Z,16.89
2022-10-05T14:57:41.502Z,16.87
2022-10-05T15:01:23.607Z,16.85
2022-10-05T15:05:02.501Z,16.81
2022-10-05T15:08:48.379Z,16.77
2022-10-05T15:12:22.923Z,16.76
2022-10-05T15:15:54.910Z,16.75
2022-10-05T15:19:25.805Z,16.73
2022-10-05T15:23:01.180Z,16.71
2022-10-05T15:26:41.799Z,16.68
2022-10-05T15:30:15.665Z,16.67
2022-10-05T15:33:51.165Z,16.65
2022-10-05T15:37:24.984Z,16.59
2022-10-05T15:41:01.517Z,16.53
2022-10-05T15:44:38.097Z,16.45
2022-10-05T15:48:09.389Z,16.38
2022-10-05T15:51:50.393Z,16.32
2022-10-05T15:55:32.487Z,16.27
2022-10-05T15:59:08.800Z,16.21
2022-10-05T16:02:47.787Z,16.16
2022-10-05T16:06:42.587Z,16.09
2022-10-05T16:10:17.545Z,16.01
2022-10-05T16:13:51.728Z,15.95
2022-10-05T16:17:35.034Z,15.88
2022-10-05T16:21:11.423Z,15.84
2022-10-05T16:25:01.943Z,15.82
2022-10-05T16:28:40.834Z,15.79
2022-10-05T16:32:17.871Z,15.77
2022-10-05T16:35:54.427Z,15.73
2022-10-05T16:39:40.543Z,15.69
2022-10-05T16:43:22.077Z,15.63
2022-10-05T16:46:56.808Z,15.55
2022-10-05T16:50:31.675Z,15.47
2022-10-05T16:54:11.886Z,15.37
2022-10-05T16:57:56.128Z,15.26
2022-10-05T17:01:54.142Z,15.13
2022-10-05T17:05:38.813Z,15.00
2022-10-05T17:09:39.981Z,14.88
2022-10-05T17:13:22.605Z,14.79
2022-10-05T17:17:07.161Z,14.71
2022-10-05T17:20:49.477Z,14.63
2022-10-05T17:24:36.079Z,14.58
2022-10-05T17:28:23.781Z,14.55
2022-10-05T17:32:33.723Z,14.54
2022-10-05T17:36:19.187Z,14.52
2022-10-05T17:39:59.862Z,14.49
2022-10-05T17:43:38.762Z,14.46
2022-10-05T17:47:24.318Z,14.42
2022-10-05T17:51:15.462Z,14.36
2022-10-05T17:55:30.721Z,14.26
2022-10-05T17:59:03.703Z,14.17
2022-10-05T18:02:45.833Z,14.07
2022-10-05T18:06:42.660Z,13.95
2022-10-05T18:10:41.039Z,13.86
2022-10-05T18:14:21.234Z,13.77
2022-10-05T18:17:53.324Z,13.71
2022-10-05T18:21:33.687Z,13.67
2022-10-05T18:25:08.148Z,13.65
2022-10-05T18:28:49.032Z,13.64
2022-10-05T18:32:28.953Z,13.63
2022-10-05T18:36:11.644Z,13.62
2022-10-05T18:40:05.759Z,13.60
2022-10-05T18:43:41.294Z,13.56
2022-10-05T18:47:19.483Z,13.55
2022-10-05T18:51:00.041Z,13.50
2022-10-05T18:54:56.067Z,13.43
2022-10-05T18:58:35.686Z,13.35
2022-10-05T19:02:16.441Z,13.26
2022-10-05T19:05:50.693Z,13.16
2022-10-05T19:09:32.676Z,13.07
2022-10-05T19:13:13.603Z,13.01
2022-10-05T19:20:34.955Z,12.94
2022-10-05T19:24:21.485Z,12.90
2022-10-05T19:28:11.711Z,12.87
2022-10-05T19:31:51.616Z,12.86
2022-10-05T19:35:37.053Z,12.87
2022-10-05T19:39:19.386Z,12.86
2022-10-05T19:43:33.305Z,12.84
2022-10-05T19:47:10.218Z,12.81
2022-10-05T19:50:40.612Z,12.78
2022-10-05T19:54:25.119Z,12.76
2022-10-05T19:57:57.453Z,12.72
2022-10-05T20:01:44.735Z,12.68
2022-10-05T20:05:23.279Z,12.66
2022-10-05T20:09:23.690Z,12.61
2022-10-05T20:13:04.300Z,12.62
2022-10-05T20:17:01.261Z,12.60
2022-10-05T20:20:47.023Z,12.61
2022-10-05T20:24:29.869Z,12.61
2022-10-05T20:28:00.078Z,12.62
2022-10-05T20:31:33.748Z,12.64
2022-10-05T20:35:03.846Z,12.68
2022-10-05T20:38:40.651Z,12.69
2022-10-05T20:42:18.169Z,12.70
2022-10-05T20:45:53.044Z,12.74
2022-10-05T20:49:28.850Z,12.79
2022-10-05T20:52:58.266Z,12.82
2022-10-05T20:56:33.602Z,12.86
2022-10-05T21:00:06.039Z,12.89
2022-10-05T21:03:35.394Z,12.91
2022-10-05T21:07:04.611Z,12.91
2022-10-05T21:10:33.509Z,12.88
2022-10-05T21:14:05.549Z,12.84
2022-10-05T21:17:36.624Z,12.79
2022-10-05T21:21:07.875Z,12.74
2022-10-05T21:24:42.604Z,12.70
2022-10-05T21:28:10.462Z,12.67
2022-10-05T21:31:39.252Z,12.64
2022-10-05T21:35:09.703Z,12.65
2022-10-05T21:38:37.311Z,12.66
2022-10-05T21:42:06.848Z,12.68
2022-10-05T21:45:35.486Z,12.71
2022-10-05T21:49:03.774Z,12.73
2022-10-05T21:52:35.769Z,12.76
2022-10-05T21:56:11.737Z,12.78
2022-10-05T21:59:39.118Z,12.81
2022-10-05T22:03:08.147Z,12.82
2022-10-05T22:06:36.791Z,12.83
2022-10-05T22:10:06.111Z,12.85
2022-10-05T22:13:43.698Z,12.84
2022-10-05T22:17:17.885Z,12.82
2022-10-05T22:20:45.204Z,12.77
2022-10-05T22:24:13.432Z,12.72
2022-10-05T22:27:40.430Z,12.66
2022-10-05T22:31:11.069Z,12.61
2022-10-05T22:34:42.586Z,12.56
2022-10-05T22:38:11.671Z,12.53
2022-10-05T22:41:38.828Z,12.52
2022-10-05T22:45:09.061Z,12.54
2022-10-05T22:48:35.976Z,12.55
2022-10-05T22:52:02.661Z,12.59
2022-10-05T22:55:29.811Z,12.63
2022-10-05T22:58:56.969Z,12.66
2022-10-05T23:02:27.411Z,12.69
2022-10-05T23:06:03.848Z,12.72
2022-10-05T23:09:32.626Z,12.75
2022-10-05T23:13:01.300Z,12.73
2022-10-05T23:16:30.737Z,12.68
2022-10-05T23:19:58.118Z,12.65
2022-10-05T23:23:25.769Z,12.61
2022-10-05T23:26:54.008Z,12.56
2022-10-05T23:30:25.319Z,12.49
2022-10-05T23:33:52.607Z,12.44
2022-10-05T23:37:23.761Z,12.36
2022-10-05T23:40:52.860Z,12.31
2022-10-05T23:44:23.184Z,12.28
2022-10-05T23:47:52.398Z,12.27
2022-10-05T23:51:19.519Z,12.27
2022-10-05T23:54:46.267Z,12.28
2022-10-05T23:58:15.633Z,12.29
